sensor_id;sensor_type;location;lat;lon;timestamp;P1;durP1;ratioP1;P2;durP2;ratioP2
37609;SDS011;23457;51.966;8.230;2023-12-20T00:01:02;21.23;;;11.18;;
37609;SDS011;23457;51.966;8.230;2023-12-20T00:03:29;23.58;;;12.00;;
37609;SDS011;23457;51.966;8.230;2023-12-20T00:06:07;24.45;;;11.35;;
37609;SDS011;23457;51.966;8.230;2023-12-20T00:08:34;26.25;;;13.35;;
37609;SDS011;23457;51.966;8.230;2023-12-20T00:11:01;22.45;;;12.18;;
37609;SDS011;23457;51.966;8.230;2023-12-20T00:13:28;21.30;;;11.32;;
37609;SDS011;23457;51.966;8.230;2023-12-20T00:15:55;24.15;;;12.18;;
37609;SDS011;23457;51.966;8.230;2023-12-20T00:18:21;25.25;;;12.05;;
37609;SDS011;23457;51.966;8.230;2023-12-20T00:20:48;30.55;;;12.63;;
37609;SDS011;23457;51.966;8.230;2023-12-20T00:23:15;23.55;;;11.38;;
37609;SDS011;23457;51.966;8.230;2023-12-20T00:25:41;24.70;;;12.55;;
37609;SDS011;23457;51.966;8.230;2023-12-20T00:28:08;23.17;;;11.98;;
37609;SDS011;23457;51.966;8.230;2023-12-20T00:30:35;21.58;;;11.40;;
37609;SDS011;23457;51.966;8.230;2023-12-20T00:33:02;24.15;;;12.18;;
37609;SDS011;23457;51.966;8.230;2023-12-20T00:35:29;22.00;;;11.00;;
37609;SDS011;23457;51.966;8.230;2023-12-20T00:37:57;23.02;;;10.73;;
37609;SDS011;23457;51.966;8.230;2023-12-20T00:40:25;23.92;;;10.75;;
37609;SDS011;23457;51.966;8.230;2023-12-20T00:42:51;18.58;;;9.80;;
37609;SDS011;23457;51.966;8.230;2023-12-20T00:45:18;22.98;;;10.15;;
37609;SDS011;23457;51.966;8.230;2023-12-20T00:47:45;19.02;;;9.57;;
37609;SDS011;23457;51.966;8.230;2023-12-20T00:50:12;23.70;;;10.32;;
37609;SDS011;23457;51.966;8.230;2023-12-20T00:52:39;16.85;;;8.35;;
37609;SDS011;23457;51.966;8.230;2023-12-20T00:55:06;20.42;;;8.23;;
37609;SDS011;23457;51.966;8.230;2023-12-20T00:57:38;17.25;;;7.70;;
37609;SDS011;23457;51.966;8.230;2023-12-20T01:00:05;16.92;;;8.10;;
37609;SDS011;23457;51.966;8.230;2023-12-20T01:02:32;17.13;;;6.82;;
37609;SDS011;23457;51.966;8.230;2023-12-20T01:04:59;14.32;;;5.82;;
37609;SDS011;23457;51.966;8.230;2023-12-20T01:07:25;17.25;;;6.28;;
37609;SDS011;23457;51.966;8.230;2023-12-20T01:09:52;14.50;;;5.78;;
37609;SDS011;23457;51.966;8.230;2023-12-20T01:12:19;17.52;;;5.75;;
37609;SDS011;23457;51.966;8.230;2023-12-20T01:14:46;13.00;;;4.72;;
37609;SDS011;23457;51.966;8.230;2023-12-20T01:17:13;10.07;;;5.03;;
37609;SDS011;23457;51.966;8.230;2023-12-20T01:19:40;14.43;;;5.25;;
37609;SDS011;23457;51.966;8.230;2023-12-20T01:22:07;13.23;;;4.63;;
37609;SDS011;23457;51.966;8.230;2023-12-20T01:24:33;10.98;;;5.40;;
37609;SDS011;23457;51.966;8.230;2023-12-20T01:27:00;16.42;;;4.70;;
37609;SDS011;23457;51.966;8.230;2023-12-20T01:29:27;15.48;;;4.55;;
37609;SDS011;23457;51.966;8.230;2023-12-20T01:31:53;19.35;;;4.50;;
37609;SDS011;23457;51.966;8.230;2023-12-20T01:34:20;13.32;;;4.78;;
37609;SDS011;23457;51.966;8.230;2023-12-20T01:36:47;15.10;;;4.68;;
37609;SDS011;23457;51.966;8.230;2023-12-20T01:39:14;15.25;;;4.63;;
37609;SDS011;23457;51.966;8.230;2023-12-20T01:41:53;14.90;;;6.35;;
37609;SDS011;23457;51.966;8.230;2023-12-20T01:44:20;13.63;;;4.93;;
37609;SDS011;23457;51.966;8.230;2023-12-20T01:46:47;14.02;;;4.70;;
37609;SDS011;23457;51.966;8.230;2023-12-20T01:49:14;11.25;;;4.40;;
37609;SDS011;23457;51.966;8.230;2023-12-20T01:51:41;13.50;;;4.63;;
37609;SDS011;23457;51.966;8.230;2023-12-20T01:54:09;16.10;;;5.05;;
37609;SDS011;23457;51.966;8.230;2023-12-20T01:56:36;10.68;;;4.03;;
37609;SDS011;23457;51.966;8.230;2023-12-20T01:59:04;11.50;;;4.57;;
37609;SDS011;23457;51.966;8.230;2023-12-20T02:01:31;14.52;;;4.22;;
37609;SDS011;23457;51.966;8.230;2023-12-20T02:03:58;17.02;;;4.68;;
37609;SDS011;23457;51.966;8.230;2023-12-20T02:06:27;18.35;;;4.78;;
37609;SDS011;23457;51.966;8.230;2023-12-20T02:08:57;15.40;;;3.95;;
37609;SDS011;23457;51.966;8.230;2023-12-20T02:11:25;24.83;;;4.50;;
37609;SDS011;23457;51.966;8.230;2023-12-20T02:13:52;11.50;;;4.13;;
37609;SDS011;23457;51.966;8.230;2023-12-20T02:16:19;18.80;;;4.60;;
37609;SDS011;23457;51.966;8.230;2023-12-20T02:18:48;14.90;;;4.95;;
37609;SDS011;23457;51.966;8.230;2023-12-20T02:21:15;17.88;;;4.28;;
37609;SDS011;23457;51.966;8.230;2023-12-20T02:23:41;17.90;;;6.68;;
37609;SDS011;23457;51.966;8.230;2023-12-20T02:26:08;16.65;;;4.82;;
37609;SDS011;23457;51.966;8.230;2023-12-20T02:28:35;15.13;;;4.68;;
37609;SDS011;23457;51.966;8.230;2023-12-20T02:31:02;15.60;;;4.15;;
37609;SDS011;23457;51.966;8.230;2023-12-20T02:33:29;27.85;;;5.63;;
37609;SDS011;23457;51.966;8.230;2023-12-20T02:35:56;18.40;;;5.60;;
37609;SDS011;23457;51.966;8.230;2023-12-20T02:38:23;25.77;;;6.18;;
37609;SDS011;23457;51.966;8.230;2023-12-20T02:40:49;22.67;;;5.45;;
37609;SDS011;23457;51.966;8.230;2023-12-20T02:43:16;21.88;;;5.45;;
37609;SDS011;23457;51.966;8.230;2023-12-20T02:45:43;16.63;;;4.93;;
37609;SDS011;23457;51.966;8.230;2023-12-20T02:48:10;17.50;;;5.38;;
37609;SDS011;23457;51.966;8.230;2023-12-20T02:50:36;19.10;;;5.88;;
37609;SDS011;23457;51.966;8.230;2023-12-20T02:53:03;19.15;;;6.63;;
37609;SDS011;23457;51.966;8.230;2023-12-20T02:55:30;23.85;;;9.98;;
37609;SDS011;23457;51.966;8.230;2023-12-20T02:57:56;31.10;;;8.93;;
37609;SDS011;23457;51.966;8.230;2023-12-20T03:00:23;20.85;;;7.63;;
37609;SDS011;23457;51.966;8.230;2023-12-20T03:02:50;21.92;;;7.97;;
37609;SDS011;23457;51.966;8.230;2023-12-20T03:05:17;23.63;;;10.00;;
37609;SDS011;23457;51.966;8.230;2023-12-20T03:07:43;22.13;;;9.15;;
37609;SDS011;23457;51.966;8.230;2023-12-20T03:10:11;30.30;;;10.25;;
37609;SDS011;23457;51.966;8.230;2023-12-20T03:12:49;34.53;;;10.00;;
37609;SDS011;23457;51.966;8.230;2023-12-20T03:15:16;27.80;;;10.70;;
37609;SDS011;23457;51.966;8.230;2023-12-20T03:17:43;23.00;;;9.85;;
37609;SDS011;23457;51.966;8.230;2023-12-20T03:20:10;28.02;;;10.88;;
37609;SDS011;23457;51.966;8.230;2023-12-20T03:22:37;27.33;;;10.20;;
37609;SDS011;23457;51.966;8.230;2023-12-20T03:25:04;32.33;;;11.07;;
37609;SDS011;23457;51.966;8.230;2023-12-20T03:27:31;25.27;;;9.32;;
37609;SDS011;23457;51.966;8.230;2023-12-20T03:29:58;25.90;;;9.55;;
37609;SDS011;23457;51.966;8.230;2023-12-20T03:32:25;28.85;;;10.10;;
37609;SDS011;23457;51.966;8.230;2023-12-20T03:34:51;22.38;;;10.27;;
37609;SDS011;23457;51.966;8.230;2023-12-20T03:37:19;28.05;;;8.63;;
37609;SDS011;23457;51.966;8.230;2023-12-20T03:39:45;22.88;;;9.68;;
37609;SDS011;23457;51.966;8.230;2023-12-20T03:42:12;32.25;;;10.00;;
37609;SDS011;23457;51.966;8.230;2023-12-20T03:44:39;30.13;;;9.30;;
37609;SDS011;23457;51.966;8.230;2023-12-20T03:49:35;28.17;;;9.70;;
37609;SDS011;23457;51.966;8.230;2023-12-20T03:52:04;21.10;;;8.88;;
37609;SDS011;23457;51.966;8.230;2023-12-20T03:54:31;28.85;;;9.32;;
37609;SDS011;23457;51.966;8.230;2023-12-20T03:56:58;30.75;;;9.27;;
37609;SDS011;23457;51.966;8.230;2023-12-20T03:59:24;28.65;;;9.27;;
37609;SDS011;23457;51.966;8.230;2023-12-20T04:01:51;27.15;;;8.68;;
37609;SDS011;23457;51.966;8.230;2023-12-20T04:04:18;24.45;;;8.57;;
37609;SDS011;23457;51.966;8.230;2023-12-20T04:06:45;28.65;;;7.78;;
37609;SDS011;23457;51.966;8.230;2023-12-20T04:09:12;22.02;;;7.45;;
37609;SDS011;23457;51.966;8.230;2023-12-20T04:11:39;33.65;;;9.07;;
37609;SDS011;23457;51.966;8.230;2023-12-20T04:14:06;27.25;;;7.53;;
37609;SDS011;23457;51.966;8.230;2023-12-20T04:16:34;25.17;;;7.88;;
37609;SDS011;23457;51.966;8.230;2023-12-20T04:19:01;33.95;;;8.40;;
37609;SDS011;23457;51.966;8.230;2023-12-20T04:21:28;28.90;;;7.78;;
37609;SDS011;23457;51.966;8.230;2023-12-20T04:23:54;22.65;;;7.00;;
37609;SDS011;23457;51.966;8.230;2023-12-20T04:26:21;27.02;;;7.55;;
37609;SDS011;23457;51.966;8.230;2023-12-20T04:28:48;29.35;;;6.97;;
37609;SDS011;23457;51.966;8.230;2023-12-20T04:31:17;23.10;;;7.70;;
37609;SDS011;23457;51.966;8.230;2023-12-20T04:33:44;17.77;;;6.43;;
37609;SDS011;23457;51.966;8.230;2023-12-20T04:36:10;35.78;;;8.90;;
37609;SDS011;23457;51.966;8.230;2023-12-20T04:38:37;25.77;;;6.95;;
37609;SDS011;23457;51.966;8.230;2023-12-20T04:41:04;21.60;;;7.00;;
37609;SDS011;23457;51.966;8.230;2023-12-20T04:43:30;36.50;;;7.90;;
37609;SDS011;23457;51.966;8.230;2023-12-20T04:45:57;21.92;;;6.40;;
37609;SDS011;23457;51.966;8.230;2023-12-20T04:48:24;27.60;;;6.95;;
37609;SDS011;23457;51.966;8.230;2023-12-20T04:50:51;20.77;;;6.05;;
37609;SDS011;23457;51.966;8.230;2023-12-20T04:53:17;29.17;;;6.28;;
37609;SDS011;23457;51.966;8.230;2023-12-20T04:55:46;27.17;;;6.25;;
37609;SDS011;23457;51.966;8.230;2023-12-20T04:58:12;28.13;;;6.82;;
37609;SDS011;23457;51.966;8.230;2023-12-20T05:00:39;26.65;;;6.65;;
37609;SDS011;23457;51.966;8.230;2023-12-20T05:03:06;26.08;;;6.15;;
37609;SDS011;23457;51.966;8.230;2023-12-20T05:05:33;21.38;;;6.28;;
37609;SDS011;23457;51.966;8.230;2023-12-20T05:08:00;30.52;;;6.43;;
37609;SDS011;23457;51.966;8.230;2023-12-20T05:10:27;23.70;;;6.40;;
37609;SDS011;23457;51.966;8.230;2023-12-20T05:12:54;23.52;;;6.80;;
37609;SDS011;23457;51.966;8.230;2023-12-20T05:15:21;28.30;;;6.75;;
37609;SDS011;23457;51.966;8.230;2023-12-20T05:17:47;27.08;;;7.63;;
37609;SDS011;23457;51.966;8.230;2023-12-20T05:20:15;26.73;;;6.72;;
37609;SDS011;23457;51.966;8.230;2023-12-20T05:22:42;30.67;;;7.28;;
37609;SDS011;23457;51.966;8.230;2023-12-20T05:25:09;23.70;;;6.47;;
37609;SDS011;23457;51.966;8.230;2023-12-20T05:27:35;25.25;;;7.65;;
37609;SDS011;23457;51.966;8.230;2023-12-20T05:30:02;29.70;;;7.28;;
37609;SDS011;23457;51.966;8.230;2023-12-20T05:32:31;32.43;;;8.00;;
37609;SDS011;23457;51.966;8.230;2023-12-20T05:34:58;26.63;;;7.07;;
37609;SDS011;23457;51.966;8.230;2023-12-20T05:37:25;23.92;;;6.93;;
37609;SDS011;23457;51.966;8.230;2023-12-20T05:39:52;23.67;;;6.15;;
37609;SDS011;23457;51.966;8.230;2023-12-20T05:42:19;28.95;;;8.30;;
37609;SDS011;23457;51.966;8.230;2023-12-20T05:44:47;28.25;;;8.05;;
37609;SDS011;23457;51.966;8.230;2023-12-20T05:47:17;36.33;;;7.68;;
37609;SDS011;23457;51.966;8.230;2023-12-20T05:49:44;33.20;;;7.82;;
37609;SDS011;23457;51.966;8.230;2023-12-20T05:52:11;31.45;;;8.10;;
37609;SDS011;23457;51.966;8.230;2023-12-20T05:54:38;30.20;;;8.15;;
37609;SDS011;23457;51.966;8.230;2023-12-20T05:57:05;28.98;;;8.60;;
37609;SDS011;23457;51.966;8.230;2023-12-20T05:59:32;30.42;;;8.38;;
37609;SDS011;23457;51.966;8.230;2023-12-20T06:01:59;31.35;;;8.18;;
37609;SDS011;23457;51.966;8.230;2023-12-20T06:04:25;28.88;;;9.60;;
37609;SDS011;23457;51.966;8.230;2023-12-20T06:06:52;36.17;;;8.90;;
37609;SDS011;23457;51.966;8.230;2023-12-20T06:09:19;27.38;;;9.10;;
37609;SDS011;23457;51.966;8.230;2023-12-20T06:11:46;28.45;;;8.32;;
37609;SDS011;23457;51.966;8.230;2023-12-20T06:14:13;27.40;;;8.85;;
37609;SDS011;23457;51.966;8.230;2023-12-20T06:16:39;27.58;;;7.63;;
37609;SDS011;23457;51.966;8.230;2023-12-20T06:19:06;28.50;;;8.57;;
37609;SDS011;23457;51.966;8.230;2023-12-20T06:21:33;29.30;;;8.73;;
37609;SDS011;23457;51.966;8.230;2023-12-20T06:24:00;28.65;;;8.70;;
37609;SDS011;23457;51.966;8.230;2023-12-20T06:26:26;28.95;;;8.10;;
37609;SDS011;23457;51.966;8.230;2023-12-20T06:28:53;45.15;;;10.13;;
37609;SDS011;23457;51.966;8.230;2023-12-20T06:31:20;26.92;;;9.43;;
37609;SDS011;23457;51.966;8.230;2023-12-20T06:33:47;31.48;;;9.63;;
37609;SDS011;23457;51.966;8.230;2023-12-20T06:36:16;28.43;;;8.13;;
37609;SDS011;23457;51.966;8.230;2023-12-20T06:38:42;30.02;;;8.25;;
37609;SDS011;23457;51.966;8.230;2023-12-20T06:41:12;35.75;;;8.57;;
37609;SDS011;23457;51.966;8.230;2023-12-20T06:43:40;37.17;;;9.15;;
37609;SDS011;23457;51.966;8.230;2023-12-20T06:46:15;34.15;;;7.75;;
37609;SDS011;23457;51.966;8.230;2023-12-20T06:48:42;36.85;;;9.45;;
37609;SDS011;23457;51.966;8.230;2023-12-20T06:51:15;31.50;;;9.40;;
37609;SDS011;23457;51.966;8.230;2023-12-20T06:53:43;24.42;;;7.38;;
37609;SDS011;23457;51.966;8.230;2023-12-20T06:56:10;34.50;;;8.25;;
37609;SDS011;23457;51.966;8.230;2023-12-20T06:58:39;41.50;;;8.05;;
37609;SDS011;23457;51.966;8.230;2023-12-20T07:01:10;30.20;;;7.30;;
37609;SDS011;23457;51.966;8.230;2023-12-20T07:03:38;30.85;;;7.07;;
37609;SDS011;23457;51.966;8.230;2023-12-20T07:06:05;29.85;;;7.10;;
37609;SDS011;23457;51.966;8.230;2023-12-20T07:08:32;28.90;;;6.70;;
37609;SDS011;23457;51.966;8.230;2023-12-20T07:10:59;30.15;;;7.60;;
37609;SDS011;23457;51.966;8.230;2023-12-20T07:13:26;27.95;;;6.93;;
37609;SDS011;23457;51.966;8.230;2023-12-20T07:15:52;34.40;;;7.82;;
37609;SDS011;23457;51.966;8.230;2023-12-20T07:18:19;26.70;;;6.75;;
37609;SDS011;23457;51.966;8.230;2023-12-20T07:20:46;28.02;;;7.50;;
37609;SDS011;23457;51.966;8.230;2023-12-20T07:23:13;38.15;;;7.25;;
37609;SDS011;23457;51.966;8.230;2023-12-20T07:25:40;36.80;;;7.47;;
37609;SDS011;23457;51.966;8.230;2023-12-20T07:28:06;30.08;;;6.22;;
37609;SDS011;23457;51.966;8.230;2023-12-20T07:30:33;31.58;;;8.05;;
37609;SDS011;23457;51.966;8.230;2023-12-20T07:33:00;24.75;;;5.63;;
37609;SDS011;23457;51.966;8.230;2023-12-20T07:35:27;28.27;;;5.80;;
37609;SDS011;23457;51.966;8.230;2023-12-20T07:37:54;26.00;;;6.38;;
37609;SDS011;23457;51.966;8.230;2023-12-20T07:40:21;31.77;;;6.82;;
37609;SDS011;23457;51.966;8.230;2023-12-20T07:42:48;26.00;;;6.13;;
37609;SDS011;23457;51.966;8.230;2023-12-20T07:45:14;27.73;;;6.15;;
37609;SDS011;23457;51.966;8.230;2023-12-20T07:47:41;33.38;;;6.72;;
37609;SDS011;23457;51.966;8.230;2023-12-20T07:50:08;23.58;;;5.72;;
37609;SDS011;23457;51.966;8.230;2023-12-20T07:52:38;25.35;;;6.13;;
37609;SDS011;23457;51.966;8.230;2023-12-20T07:55:05;22.92;;;5.32;;
37609;SDS011;23457;51.966;8.230;2023-12-20T07:57:32;29.73;;;6.05;;
37609;SDS011;23457;51.966;8.230;2023-12-20T07:59:59;28.45;;;6.05;;
37609;SDS011;23457;51.966;8.230;2023-12-20T08:02:26;25.67;;;6.20;;
37609;SDS011;23457;51.966;8.230;2023-12-20T08:04:52;24.60;;;6.10;;
37609;SDS011;23457;51.966;8.230;2023-12-20T08:07:19;33.22;;;7.10;;
37609;SDS011;23457;51.966;8.230;2023-12-20T08:09:46;31.73;;;6.60;;
37609;SDS011;23457;51.966;8.230;2023-12-20T08:12:13;27.17;;;7.07;;
37609;SDS011;23457;51.966;8.230;2023-12-20T08:14:39;30.80;;;7.85;;
37609;SDS011;23457;51.966;8.230;2023-12-20T08:17:06;31.48;;;6.57;;
37609;SDS011;23457;51.966;8.230;2023-12-20T08:19:33;25.95;;;6.80;;
37609;SDS011;23457;51.966;8.230;2023-12-20T08:22:00;25.92;;;5.82;;
37609;SDS011;23457;51.966;8.230;2023-12-20T08:24:27;39.40;;;7.97;;
37609;SDS011;23457;51.966;8.230;2023-12-20T08:26:53;24.70;;;6.13;;
37609;SDS011;23457;51.966;8.230;2023-12-20T08:29:20;34.63;;;6.57;;
37609;SDS011;23457;51.966;8.230;2023-12-20T08:31:51;23.50;;;6.05;;
37609;SDS011;23457;51.966;8.230;2023-12-20T08:34:19;29.58;;;6.55;;
37609;SDS011;23457;51.966;8.230;2023-12-20T08:36:45;19.88;;;6.63;;
37609;SDS011;23457;51.966;8.230;2023-12-20T08:39:12;32.13;;;7.40;;
37609;SDS011;23457;51.966;8.230;2023-12-20T08:41:39;28.50;;;6.28;;
37609;SDS011;23457;51.966;8.230;2023-12-20T08:44:06;26.63;;;6.93;;
37609;SDS011;23457;51.966;8.230;2023-12-20T08:46:32;28.38;;;6.68;;
37609;SDS011;23457;51.966;8.230;2023-12-20T08:48:59;32.60;;;7.60;;
37609;SDS011;23457;51.966;8.230;2023-12-20T08:51:27;24.95;;;6.82;;
37609;SDS011;23457;51.966;8.230;2023-12-20T08:53:54;31.70;;;7.40;;
37609;SDS011;23457;51.966;8.230;2023-12-20T08:56:21;27.83;;;8.38;;
37609;SDS011;23457;51.966;8.230;2023-12-20T08:58:47;28.95;;;7.88;;
37609;SDS011;23457;51.966;8.230;2023-12-20T09:01:14;25.27;;;7.13;;
37609;SDS011;23457;51.966;8.230;2023-12-20T09:03:42;26.63;;;8.55;;
37609;SDS011;23457;51.966;8.230;2023-12-20T09:06:10;25.42;;;7.47;;
37609;SDS011;23457;51.966;8.230;2023-12-20T09:08:36;23.55;;;7.25;;
37609;SDS011;23457;51.966;8.230;2023-12-20T09:11:03;30.17;;;7.32;;
37609;SDS011;23457;51.966;8.230;2023-12-20T09:13:30;23.15;;;7.80;;
37609;SDS011;23457;51.966;8.230;2023-12-20T09:15:58;35.55;;;8.40;;
37609;SDS011;23457;51.966;8.230;2023-12-20T09:18:26;32.08;;;7.75;;
37609;SDS011;23457;51.966;8.230;2023-12-20T09:20:52;28.75;;;7.32;;
37609;SDS011;23457;51.966;8.230;2023-12-20T09:23:19;25.48;;;7.50;;
37609;SDS011;23457;51.966;8.230;2023-12-20T09:25:46;30.85;;;7.90;;
37609;SDS011;23457;51.966;8.230;2023-12-20T09:28:13;29.13;;;8.48;;
37609;SDS011;23457;51.966;8.230;2023-12-20T09:30:39;27.63;;;7.53;;
37609;SDS011;23457;51.966;8.230;2023-12-20T09:33:07;23.05;;;6.97;;
37609;SDS011;23457;51.966;8.230;2023-12-20T09:35:34;29.73;;;7.53;;
37609;SDS011;23457;51.966;8.230;2023-12-20T09:38:02;28.40;;;7.65;;
37609;SDS011;23457;51.966;8.230;2023-12-20T09:40:28;26.85;;;7.03;;
37609;SDS011;23457;51.966;8.230;2023-12-20T09:45:31;30.52;;;8.38;;
37609;SDS011;23457;51.966;8.230;2023-12-20T09:47:58;29.08;;;7.55;;
37609;SDS011;23457;51.966;8.230;2023-12-20T09:50:25;23.80;;;7.00;;
37609;SDS011;23457;51.966;8.230;2023-12-20T09:52:53;37.63;;;7.68;;
37609;SDS011;23457;51.966;8.230;2023-12-20T09:55:20;31.65;;;8.25;;
37609;SDS011;23457;51.966;8.230;2023-12-20T09:57:48;24.50;;;7.20;;
37609;SDS011;23457;51.966;8.230;2023-12-20T10:00:16;24.60;;;7.18;;
37609;SDS011;23457;51.966;8.230;2023-12-20T10:05:35;29.10;;;7.10;;
37609;SDS011;23457;51.966;8.230;2023-12-20T10:08:02;24.30;;;7.00;;
37609;SDS011;23457;51.966;8.230;2023-12-20T10:10:30;34.38;;;9.73;;
37609;SDS011;23457;51.966;8.230;2023-12-20T10:13:11;26.08;;;6.60;;
37609;SDS011;23457;51.966;8.230;2023-12-20T10:15:39;32.28;;;6.40;;
37609;SDS011;23457;51.966;8.230;2023-12-20T10:18:08;26.45;;;7.05;;
37609;SDS011;23457;51.966;8.230;2023-12-20T10:20:35;21.77;;;6.10;;
37609;SDS011;23457;51.966;8.230;2023-12-20T10:23:02;36.38;;;7.22;;
37609;SDS011;23457;51.966;8.230;2023-12-20T10:25:30;28.25;;;6.05;;
37609;SDS011;23457;51.966;8.230;2023-12-20T10:28:08;33.43;;;5.77;;
37609;SDS011;23457;51.966;8.230;2023-12-20T10:30:40;25.35;;;6.78;;
37609;SDS011;23457;51.966;8.230;2023-12-20T10:33:07;25.30;;;6.70;;
37609;SDS011;23457;51.966;8.230;2023-12-20T10:35:35;27.58;;;6.80;;
37609;SDS011;23457;51.966;8.230;2023-12-20T10:38:03;27.55;;;6.03;;
37609;SDS011;23457;51.966;8.230;2023-12-20T10:40:34;24.85;;;5.75;;
37609;SDS011;23457;51.966;8.230;2023-12-20T10:43:03;31.63;;;6.65;;
37609;SDS011;23457;51.966;8.230;2023-12-20T10:45:31;32.35;;;5.97;;
37609;SDS011;23457;51.966;8.230;2023-12-20T10:47:58;25.25;;;5.68;;
37609;SDS011;23457;51.966;8.230;2023-12-20T10:50:28;29.42;;;5.72;;
37609;SDS011;23457;51.966;8.230;2023-12-20T10:52:57;26.58;;;5.63;;
37609;SDS011;23457;51.966;8.230;2023-12-20T10:55:25;30.45;;;5.65;;
37609;SDS011;23457;51.966;8.230;2023-12-20T10:57:52;30.23;;;6.68;;
37609;SDS011;23457;51.966;8.230;2023-12-20T11:00:25;24.38;;;4.80;;
37609;SDS011;23457;51.966;8.230;2023-12-20T11:02:52;27.25;;;5.47;;
37609;SDS011;23457;51.966;8.230;2023-12-20T11:07:59;27.27;;;4.88;;
37609;SDS011;23457;51.966;8.230;2023-12-20T11:10:50;22.45;;;5.70;;
37609;SDS011;23457;51.966;8.230;2023-12-20T11:13:27;19.52;;;4.45;;
37609;SDS011;23457;51.966;8.230;2023-12-20T11:15:56;22.02;;;5.30;;
37609;SDS011;23457;51.966;8.230;2023-12-20T11:18:29;26.83;;;4.75;;
37609;SDS011;23457;51.966;8.230;2023-12-20T11:21:00;18.92;;;4.88;;
37609;SDS011;23457;51.966;8.230;2023-12-20T11:23:30;25.70;;;5.22;;
37609;SDS011;23457;51.966;8.230;2023-12-20T11:26:00;29.23;;;4.70;;
37609;SDS011;23457;51.966;8.230;2023-12-20T11:28:28;18.95;;;4.82;;
37609;SDS011;23457;51.966;8.230;2023-12-20T11:30:56;21.42;;;5.32;;
37609;SDS011;23457;51.966;8.230;2023-12-20T11:33:32;25.83;;;4.55;;
37609;SDS011;23457;51.966;8.230;2023-12-20T11:36:03;24.88;;;4.72;;
37609;SDS011;23457;51.966;8.230;2023-12-20T11:38:36;25.48;;;6.28;;
37609;SDS011;23457;51.966;8.230;2023-12-20T11:41:07;18.30;;;4.65;;
37609;SDS011;23457;51.966;8.230;2023-12-20T11:43:37;26.67;;;5.95;;
37609;SDS011;23457;51.966;8.230;2023-12-20T11:46:08;17.73;;;3.85;;
37609;SDS011;23457;51.966;8.230;2023-12-20T11:48:39;20.83;;;3.70;;
37609;SDS011;23457;51.966;8.230;2023-12-20T11:51:10;18.45;;;3.80;;
37609;SDS011;23457;51.966;8.230;2023-12-20T11:53:40;19.52;;;3.92;;
37609;SDS011;23457;51.966;8.230;2023-12-20T11:56:08;20.77;;;4.30;;
37609;SDS011;23457;51.966;8.230;2023-12-20T11:58:36;15.75;;;4.15;;
37609;SDS011;23457;51.966;8.230;2023-12-20T12:01:04;19.63;;;3.20;;
37609;SDS011;23457;51.966;8.230;2023-12-20T12:03:34;15.82;;;3.60;;
37609;SDS011;23457;51.966;8.230;2023-12-20T12:06:01;17.88;;;4.00;;
37609;SDS011;23457;51.966;8.230;2023-12-20T12:08:31;16.15;;;4.20;;
37609;SDS011;23457;51.966;8.230;2023-12-20T12:10:57;15.95;;;4.85;;
37609;SDS011;23457;51.966;8.230;2023-12-20T12:13:24;15.70;;;4.10;;
37609;SDS011;23457;51.966;8.230;2023-12-20T12:15:54;19.38;;;4.53;;
37609;SDS011;23457;51.966;8.230;2023-12-20T12:18:20;16.60;;;3.80;;
37609;SDS011;23457;51.966;8.230;2023-12-20T12:20:48;25.70;;;5.15;;
37609;SDS011;23457;51.966;8.230;2023-12-20T12:23:14;19.38;;;4.40;;
37609;SDS011;23457;51.966;8.230;2023-12-20T12:25:50;19.17;;;3.92;;
37609;SDS011;23457;51.966;8.230;2023-12-20T12:28:17;16.63;;;3.80;;
37609;SDS011;23457;51.966;8.230;2023-12-20T12:30:55;20.48;;;3.92;;
37609;SDS011;23457;51.966;8.230;2023-12-20T12:33:27;20.40;;;3.85;;
37609;SDS011;23457;51.966;8.230;2023-12-20T12:35:54;12.05;;;4.00;;
37609;SDS011;23457;51.966;8.230;2023-12-20T12:38:21;18.92;;;4.60;;
37609;SDS011;23457;51.966;8.230;2023-12-20T12:40:49;20.23;;;4.65;;
37609;SDS011;23457;51.966;8.230;2023-12-20T12:43:16;25.75;;;7.25;;
37609;SDS011;23457;51.966;8.230;2023-12-20T12:45:43;19.50;;;3.88;;
37609;SDS011;23457;51.966;8.230;2023-12-20T12:48:10;22.05;;;4.65;;
37609;SDS011;23457;51.966;8.230;2023-12-20T12:50:37;23.65;;;4.43;;
37609;SDS011;23457;51.966;8.230;2023-12-20T12:53:03;14.85;;;3.70;;
37609;SDS011;23457;51.966;8.230;2023-12-20T12:55:30;19.92;;;4.40;;
37609;SDS011;23457;51.966;8.230;2023-12-20T12:57:57;16.65;;;4.22;;
37609;SDS011;23457;51.966;8.230;2023-12-20T13:00:25;14.50;;;3.65;;
37609;SDS011;23457;51.966;8.230;2023-12-20T13:02:52;19.65;;;3.58;;
37609;SDS011;23457;51.966;8.230;2023-12-20T13:05:19;19.02;;;3.72;;
37609;SDS011;23457;51.966;8.230;2023-12-20T13:07:46;17.33;;;3.80;;
37609;SDS011;23457;51.966;8.230;2023-12-20T13:10:14;20.02;;;3.33;;
37609;SDS011;23457;51.966;8.230;2023-12-20T13:12:44;27.42;;;4.38;;
37609;SDS011;23457;51.966;8.230;2023-12-20T13:15:17;11.95;;;2.00;;
37609;SDS011;23457;51.966;8.230;2023-12-20T13:17:44;7.95;;;1.73;;
37609;SDS011;23457;51.966;8.230;2023-12-20T13:20:13;7.40;;;1.00;;
37609;SDS011;23457;51.966;8.230;2023-12-20T13:22:40;5.45;;;1.15;;
37609;SDS011;23457;51.966;8.230;2023-12-20T13:25:07;3.67;;;1.10;;
37609;SDS011;23457;51.966;8.230;2023-12-20T13:27:37;4.30;;;1.05;;
37609;SDS011;23457;51.966;8.230;2023-12-20T13:30:04;5.95;;;1.77;;
37609;SDS011;23457;51.966;8.230;2023-12-20T13:32:32;8.57;;;2.30;;
37609;SDS011;23457;51.966;8.230;2023-12-20T13:35:03;10.20;;;2.75;;
37609;SDS011;23457;51.966;8.230;2023-12-20T13:37:31;7.82;;;2.22;;
37609;SDS011;23457;51.966;8.230;2023-12-20T13:39:58;7.10;;;1.33;;
37609;SDS011;23457;51.966;8.230;2023-12-20T13:42:24;6.55;;;1.33;;
37609;SDS011;23457;51.966;8.230;2023-12-20T13:47:21;8.45;;;2.58;;
37609;SDS011;23457;51.966;8.230;2023-12-20T13:49:50;8.43;;;2.00;;
37609;SDS011;23457;51.966;8.230;2023-12-20T13:52:17;5.60;;;1.30;;
37609;SDS011;23457;51.966;8.230;2023-12-20T13:54:45;4.63;;;1.00;;
37609;SDS011;23457;51.966;8.230;2023-12-20T13:57:11;4.82;;;1.08;;
37609;SDS011;23457;51.966;8.230;2023-12-20T13:59:56;5.18;;;1.38;;
37609;SDS011;23457;51.966;8.230;2023-12-20T14:02:24;5.85;;;1.23;;
37609;SDS011;23457;51.966;8.230;2023-12-20T14:04:53;9.07;;;1.92;;
37609;SDS011;23457;51.966;8.230;2023-12-20T14:07:20;6.25;;;1.30;;
37609;SDS011;23457;51.966;8.230;2023-12-20T14:09:47;8.68;;;1.10;;
37609;SDS011;23457;51.966;8.230;2023-12-20T14:12:15;8.43;;;1.70;;
37609;SDS011;23457;51.966;8.230;2023-12-20T14:14:42;5.75;;;1.65;;
37609;SDS011;23457;51.966;8.230;2023-12-20T14:17:11;11.30;;;1.98;;
37609;SDS011;23457;51.966;8.230;2023-12-20T14:19:38;10.23;;;1.90;;
37609;SDS011;23457;51.966;8.230;2023-12-20T14:22:06;8.20;;;2.05;;
37609;SDS011;23457;51.966;8.230;2023-12-20T14:24:33;9.20;;;2.60;;
37609;SDS011;23457;51.966;8.230;2023-12-20T14:27:01;8.13;;;3.85;;
37609;SDS011;23457;51.966;8.230;2023-12-20T14:29:27;10.00;;;3.50;;
37609;SDS011;23457;51.966;8.230;2023-12-20T14:31:54;7.57;;;2.30;;
37609;SDS011;23457;51.966;8.230;2023-12-20T14:34:21;8.90;;;2.15;;
37609;SDS011;23457;51.966;8.230;2023-12-20T14:36:48;10.95;;;2.35;;
37609;SDS011;23457;51.966;8.230;2023-12-20T14:39:15;10.80;;;3.83;;
37609;SDS011;23457;51.966;8.230;2023-12-20T14:41:42;15.38;;;4.68;;
37609;SDS011;23457;51.966;8.230;2023-12-20T14:44:09;19.55;;;5.75;;
37609;SDS011;23457;51.966;8.230;2023-12-20T14:46:35;14.48;;;4.90;;
37609;SDS011;23457;51.966;8.230;2023-12-20T14:49:06;14.80;;;4.00;;